sensor_id;sensor_type;location;lat;lon;timestamp;pressure;altitude;pressure_sealevel;temperature;humidity
17230;BME280;8731;50.364;8.958;2022-11-14T00:02:10;100224.94;;;2.98;88.71
17230;BME280;8731;50.364;8.958;2022-11-14T00:06:51;100217.03;;;2.95;88.22
17230;BME280;8731;50.364;8.958;2022-11-14T00:11:33;100221.50;;;2.91;88.09
17230;BME280;8731;50.364;8.958;2022-11-14T00:16:22;100227.28;;;2.63;89.45
17230;BME280;8731;50.364;8.958;2022-11-14T00:21:06;100224.06;;;2.71;88.28
17230;BME280;8731;50.364;8.958;2022-11-14T00:25:56;100215.97;;;2.66;88.36
17230;BME280;8731;50.364;8.958;2022-11-14T00:30:39;100217.03;;;2.61;88.22
17230;BME280;8731;50.364;8.958;2022-11-14T00:35:19;100215.59;;;2.63;87.59
17230;BME280;8731;50.364;8.958;2022-11-14T00:40:00;100212.97;;;2.49;88.36
17230;BME280;8731;50.364;8.958;2022-11-14T00:44:41;100217.16;;;2.56;88.44
17230;BME280;8731;50.364;8.958;2022-11-14T00:49:23;100210.63;;;2.43;89.34
17230;BME280;8731;50.364;8.958;2022-11-14T00:54:04;100207.41;;;2.44;88.54
17230;BME280;8731;50.364;8.958;2022-11-14T00:58:45;100207.78;;;2.47;88.89
17230;BME280;8731;50.364;8.958;2022-11-14T01:03:26;100202.97;;;2.29;90.07
17230;BME280;8731;50.364;8.958;2022-11-14T01:08:08;100195.63;;;2.31;89.82
17230;BME280;8731;50.364;8.958;2022-11-14T01:12:49;100190.44;;;2.36;88.74
17230;BME280;8731;50.364;8.958;2022-11-14T01:17:30;100184.75;;;2.37;88.83
17230;BME280;8731;50.364;8.958;2022-11-14T01:22:11;100183.63;;;2.35;89.35
17230;BME280;8731;50.364;8.958;2022-11-14T01:26:54;100174.81;;;2.32;89.11
17230;BME280;8731;50.364;8.958;2022-11-14T01:31:35;100168.19;;;2.32;89.96
17230;BME280;8731;50.364;8.958;2022-11-14T01:36:16;100155.63;;;2.32;89.16
17230;BME280;8731;50.364;8.958;2022-11-14T01:40:57;100157.03;;;2.30;89.86
17230;BME280;8731;50.364;8.958;2022-11-14T01:45:54;100143.59;;;2.30;89.46
17230;BME280;8731;50.364;8.958;2022-11-14T01:50:36;100138.72;;;2.24;89.86
17230;BME280;8731;50.364;8.958;2022-11-14T01:55:25;100135.31;;;2.24;90.11
17230;BME280;8731;50.364;8.958;2022-11-14T02:00:09;100130.44;;;2.18;90.26
17230;BME280;8731;50.364;8.958;2022-11-14T02:04:56;100120.78;;;2.01;91.76
17230;BME280;8731;50.364;8.958;2022-11-14T02:09:44;100121.22;;;2.11;91.37
17230;BME280;8731;50.364;8.958;2022-11-14T02:14:27;100123.72;;;2.11;90.96
17230;BME280;8731;50.364;8.958;2022-11-14T02:19:09;100112.06;;;2.12;90.29
17230;BME280;8731;50.364;8.958;2022-11-14T02:23:54;100118.91;;;2.13;90.25
17230;BME280;8731;50.364;8.958;2022-11-14T02:28:34;100113.91;;;2.13;90.09
17230;BME280;8731;50.364;8.958;2022-11-14T02:33:16;100095.91;;;2.10;90.36
17230;BME280;8731;50.364;8.958;2022-11-14T02:37:57;100101.56;;;1.95;92.14
17230;BME280;8731;50.364;8.958;2022-11-14T02:42:40;100106.63;;;2.02;91.51
17230;BME280;8731;50.364;8.958;2022-11-14T02:47:44;100091.88;;;1.91;92.86
17230;BME280;8731;50.364;8.958;2022-11-14T02:52:24;100089.03;;;1.95;92.82
17230;BME280;8731;50.364;8.958;2022-11-14T02:57:05;100080.78;;;1.96;92.45
17230;BME280;8731;50.364;8.958;2022-11-14T03:01:48;100091.16;;;1.92;93.32
17230;BME280;8731;50.364;8.958;2022-11-14T03:06:29;100077.69;;;1.91;92.13
17230;BME280;8731;50.364;8.958;2022-11-14T03:11:15;100056.38;;;1.95;91.93
17230;BME280;8731;50.364;8.958;2022-11-14T03:16:06;100060.63;;;1.89;92.66
17230;BME280;8731;50.364;8.958;2022-11-14T03:21:07;100049.84;;;1.82;93.48
17230;BME280;8731;50.364;8.958;2022-11-14T03:25:49;100056.63;;;1.76;92.29
17230;BME280;8731;50.364;8.958;2022-11-14T03:30:30;100049.50;;;1.87;91.59
17230;BME280;8731;50.364;8.958;2022-11-14T03:35:10;100056.09;;;1.79;91.55
17230;BME280;8731;50.364;8.958;2022-11-14T03:39:53;100056.81;;;1.78;93.05
17230;BME280;8731;50.364;8.958;2022-11-14T03:44:33;100058.38;;;1.50;94.74
17230;BME280;8731;50.364;8.958;2022-11-14T03:49:14;100059.59;;;1.67;93.43
17230;BME280;8731;50.364;8.958;2022-11-14T03:53:55;100066.00;;;1.65;94.24
17230;BME280;8731;50.364;8.958;2022-11-14T03:58:37;100051.84;;;1.65;95.01
17230;BME280;8731;50.364;8.958;2022-11-14T04:03:18;100052.25;;;1.68;93.58
17230;BME280;8731;50.364;8.958;2022-11-14T04:07:59;100051.94;;;1.72;92.95
17230;BME280;8731;50.364;8.958;2022-11-14T04:12:39;100047.78;;;1.66;93.19
17230;BME280;8731;50.364;8.958;2022-11-14T04:17:21;100036.59;;;1.64;93.91
17230;BME280;8731;50.364;8.958;2022-11-14T04:22:16;100030.88;;;1.65;93.26
17230;BME280;8731;50.364;8.958;2022-11-14T04:26:57;100028.97;;;1.69;93.17
17230;BME280;8731;50.364;8.958;2022-11-14T04:31:38;100030.13;;;1.59;93.11
17230;BME280;8731;50.364;8.958;2022-11-14T04:36:20;100022.97;;;1.62;92.83
17230;BME280;8731;50.364;8.958;2022-11-14T04:41:01;100018.84;;;1.62;92.88
17230;BME280;8731;50.364;8.958;2022-11-14T04:45:42;100022.78;;;1.60;92.46
17230;BME280;8731;50.364;8.958;2022-11-14T04:50:23;100013.06;;;1.49;94.18
17230;BME280;8731;50.364;8.958;2022-11-14T04:55:06;100019.66;;;1.48;93.64
17230;BME280;8731;50.364;8.958;2022-11-14T04:59:47;100027.72;;;1.46;94.34
17230;BME280;8731;50.364;8.958;2022-11-14T05:04:28;100022.38;;;1.50;93.90
17230;BME280;8731;50.364;8.958;2022-11-14T05:09:09;100023.94;;;1.42;93.43
17230;BME280;8731;50.364;8.958;2022-11-14T05:13:52;100017.69;;;1.46;94.12
17230;BME280;8731;50.364;8.958;2022-11-14T05:18:32;100007.91;;;1.35;94.57
17230;BME280;8731;50.364;8.958;2022-11-14T05:23:18;100006.94;;;1.47;94.53
17230;BME280;8731;50.364;8.958;2022-11-14T05:28:01;100004.44;;;1.47;94.93
17230;BME280;8731;50.364;8.958;2022-11-14T05:32:43;100000.75;;;1.38;95.01
17230;BME280;8731;50.364;8.958;2022-11-14T05:37:24;100009.56;;;1.41;95.91
17230;BME280;8731;50.364;8.958;2022-11-14T05:42:05;100002.81;;;1.47;94.64
17230;BME280;8731;50.364;8.958;2022-11-14T05:46:46;100009.66;;;1.29;95.69
17230;BME280;8731;50.364;8.958;2022-11-14T05:51:28;100014.16;;;1.31;95.67
17230;BME280;8731;50.364;8.958;2022-11-14T05:56:10;100008.81;;;1.35;95.22
17230;BME280;8731;50.364;8.958;2022-11-14T06:00:52;100009.22;;;1.18;95.62
17230;BME280;8731;50.364;8.958;2022-11-14T06:05:40;100018.84;;;1.15;96.71
17230;BME280;8731;50.364;8.958;2022-11-14T06:10:23;100014.88;;;1.10;96.83
17230;BME280;8731;50.364;8.958;2022-11-14T06:15:05;100025.41;;;1.28;94.90
17230;BME280;8731;50.364;8.958;2022-11-14T06:19:46;100037.09;;;1.34;95.05
17230;BME280;8731;50.364;8.958;2022-11-14T06:24:27;100040.38;;;1.40;94.28
17230;BME280;8731;50.364;8.958;2022-11-14T06:29:09;100054.09;;;1.49;94.54
17230;BME280;8731;50.364;8.958;2022-11-14T06:33:51;100042.88;;;1.60;94.50
17230;BME280;8731;50.364;8.958;2022-11-14T06:38:33;100040.44;;;1.67;95.52
17230;BME280;8731;50.364;8.958;2022-11-14T06:43:14;100045.50;;;1.74;96.19
17230;BME280;8731;50.364;8.958;2022-11-14T06:47:58;100044.41;;;1.72;97.45
17230;BME280;8731;50.364;8.958;2022-11-14T06:52:39;100036.19;;;1.80;98.05
17230;BME280;8731;50.364;8.958;2022-11-14T06:57:20;100036.25;;;1.88;97.95
17230;BME280;8731;50.364;8.958;2022-11-14T07:02:00;100049.03;;;1.96;97.02
17230;BME280;8731;50.364;8.958;2022-11-14T07:06:43;100056.97;;;2.06;97.31
17230;BME280;8731;50.364;8.958;2022-11-14T07:11:29;100056.19;;;2.20;97.38
17230;BME280;8731;50.364;8.958;2022-11-14T07:16:11;100053.72;;;2.34;97.12
17230;BME280;8731;50.364;8.958;2022-11-14T07:20:56;100058.81;;;2.49;98.73
17230;BME280;8731;50.364;8.958;2022-11-14T07:25:39;100050.09;;;2.66;99.20
17230;BME280;8731;50.364;8.958;2022-11-14T07:30:21;100055.34;;;2.82;99.08
17230;BME280;8731;50.364;8.958;2022-11-14T07:35:01;100042.63;;;3.02;100.00
17230;BME280;8731;50.364;8.958;2022-11-14T07:39:42;100048.78;;;3.18;100.00
17230;BME280;8731;50.364;8.958;2022-11-14T07:44:25;100051.16;;;3.38;100.00
17230;BME280;8731;50.364;8.958;2022-11-14T07:49:05;100047.91;;;3.67;100.00
17230;BME280;8731;50.364;8.958;2022-11-14T07:53:46;100055.47;;;3.82;100.00
17230;BME280;8731;50.364;8.958;2022-11-14T07:58:27;100066.19;;;4.16;100.00
17230;BME280;8731;50.364;8.958;2022-11-14T08:03:09;100066.63;;;4.49;100.00
17230;BME280;8731;50.364;8.958;2022-11-14T08:07:50;100049.66;;;4.62;100.00
17230;BME280;8731;50.364;8.958;2022-11-14T08:12:32;100034.19;;;5.19;100.00
17230;BME280;8731;50.364;8.958;2022-11-14T08:17:12;100015.69;;;5.58;100.00
17230;BME280;8731;50.364;8.958;2022-11-14T08:21:54;100037.19;;;6.15;98.28
17230;BME280;8731;50.364;8.958;2022-11-14T08:26:36;100039.03;;;6.09;97.75
17230;BME280;8731;50.364;8.958;2022-11-14T08:31:17;100042.38;;;6.33;95.95
17230;BME280;8731;50.364;8.958;2022-11-14T08:35:59;100040.03;;;6.50;94.57
17230;BME280;8731;50.364;8.958;2022-11-14T08:40:41;100020.56;;;6.73;93.14
17230;BME280;8731;50.364;8.958;2022-11-14T08:45:22;100019.13;;;6.60;94.58
17230;BME280;8731;50.364;8.958;2022-11-14T08:50:04;100028.63;;;6.78;93.51
17230;BME280;8731;50.364;8.958;2022-11-14T08:54:45;100023.22;;;6.66;94.26
17230;BME280;8731;50.364;8.958;2022-11-14T08:59:27;100027.31;;;6.82;91.77
17230;BME280;8731;50.364;8.958;2022-11-14T09:04:07;100028.22;;;6.82;92.74
17230;BME280;8731;50.364;8.958;2022-11-14T09:08:48;100032.09;;;7.03;92.29
17230;BME280;8731;50.364;8.958;2022-11-14T09:13:31;100047.69;;;6.99;92.32
17230;BME280;8731;50.364;8.958;2022-11-14T09:18:13;100050.44;;;7.09;92.88
17230;BME280;8731;50.364;8.958;2022-11-14T09:22:56;100054.56;;;7.24;92.26
17230;BME280;8731;50.364;8.958;2022-11-14T09:27:37;100039.16;;;7.80;88.69
17230;BME280;8731;50.364;8.958;2022-11-14T09:32:18;100024.31;;;7.83;89.79
17230;BME280;8731;50.364;8.958;2022-11-14T09:37:00;100018.78;;;8.55;87.37
17230;BME280;8731;50.364;8.958;2022-11-14T09:41:51;100013.41;;;8.60;86.83
17230;BME280;8731;50.364;8.958;2022-11-14T09:46:45;100008.31;;;8.86;85.49
17230;BME280;8731;50.364;8.958;2022-11-14T09:51:30;99991.72;;;9.52;84.84
17230;BME280;8731;50.364;8.958;2022-11-14T09:56:19;99994.38;;;9.53;83.62
17230;BME280;8731;50.364;8.958;2022-11-14T10:01:05;99999.84;;;9.31;83.06
17230;BME280;8731;50.364;8.958;2022-11-14T10:06:01;99983.16;;;9.24;81.64
17230;BME280;8731;50.364;8.958;2022-11-14T10:10:58;99992.94;;;9.47;80.42
17230;BME280;8731;50.364;8.958;2022-11-14T10:15:51;100002.66;;;9.78;79.76
17230;BME280;8731;50.364;8.958;2022-11-14T10:20:43;99984.97;;;11.01;80.65
17230;BME280;8731;50.364;8.958;2022-11-14T10:25:37;99977.38;;;10.64;76.39
17230;BME280;8731;50.364;8.958;2022-11-14T10:30:34;99965.06;;;10.68;74.98
17230;BME280;8731;50.364;8.958;2022-11-14T10:35:23;99955.31;;;11.72;74.88
17230;BME280;8731;50.364;8.958;2022-11-14T10:40:16;99944.84;;;11.48;72.82
17230;BME280;8731;50.364;8.958;2022-11-14T10:45:02;99943.66;;;11.34;72.96
17230;BME280;8731;50.364;8.958;2022-11-14T10:49:48;99932.88;;;12.28;71.45
17230;BME280;8731;50.364;8.958;2022-11-14T10:54:39;99919.44;;;13.59;72.16
17230;BME280;8731;50.364;8.958;2022-11-14T10:59:24;99911.16;;;14.30;70.24
17230;BME280;8731;50.364;8.958;2022-11-14T11:04:20;99918.22;;;12.78;67.37
17230;BME280;8731;50.364;8.958;2022-11-14T11:09:07;99915.78;;;13.56;66.48
17230;BME280;8731;50.364;8.958;2022-11-14T11:14:16;99900.09;;;14.90;67.44
17230;BME280;8731;50.364;8.958;2022-11-14T11:19:13;99900.94;;;14.65;66.30
17230;BME280;8731;50.364;8.958;2022-11-14T11:24:01;99890.94;;;15.05;67.17
17230;BME280;8731;50.364;8.958;2022-11-14T11:28:42;99885.44;;;15.49;68.39
17230;BME280;8731;50.364;8.958;2022-11-14T11:33:25;99872.81;;;16.54;65.81
17230;BME280;8731;50.364;8.958;2022-11-14T11:38:10;99884.97;;;13.99;64.35
17230;BME280;8731;50.364;8.958;2022-11-14T11:42:57;99870.28;;;14.79;63.36
17230;BME280;8731;50.364;8.958;2022-11-14T11:47:43;99864.72;;;15.09;65.49
17230;BME280;8731;50.364;8.958;2022-11-14T11:52:33;99865.78;;;14.99;66.62
17230;BME280;8731;50.364;8.958;2022-11-14T11:57:23;99858.69;;;14.37;67.77
17230;BME280;8731;50.364;8.958;2022-11-14T12:02:19;99858.88;;;13.93;65.01
17230;BME280;8731;50.364;8.958;2022-11-14T12:07:08;99854.97;;;13.30;66.38
17230;BME280;8731;50.364;8.958;2022-11-14T12:12:00;99859.72;;;13.25;68.36
17230;BME280;8731;50.364;8.958;2022-11-14T12:22:30;99864.88;;;12.19;70.32
17230;BME280;8731;50.364;8.958;2022-11-14T12:27:44;99860.78;;;12.31;71.83
17230;BME280;8731;50.364;8.958;2022-11-14T12:32:37;99855.31;;;12.16;72.41
17230;BME280;8731;50.364;8.958;2022-11-14T12:37:26;99843.91;;;13.19;69.55
17230;BME280;8731;50.364;8.958;2022-11-14T12:42:11;99844.47;;;12.83;71.96
17230;BME280;8731;50.364;8.958;2022-11-14T12:47:14;99844.19;;;12.90;71.26
17230;BME280;8731;50.364;8.958;2022-11-14T12:51:57;99851.25;;;12.82;71.39
17230;BME280;8731;50.364;8.958;2022-11-14T12:56:52;99832.53;;;12.94;72.22
17230;BME280;8731;50.364;8.958;2022-11-14T13:01:49;99826.41;;;12.91;72.90
17230;BME280;8731;50.364;8.958;2022-11-14T13:06:56;99829.97;;;12.40;72.60
17230;BME280;8731;50.364;8.958;2022-11-14T13:11:46;99813.97;;;12.20;73.42
17230;BME280;8731;50.364;8.958;2022-11-14T13:16:46;99819.44;;;12.25;73.92
17230;BME280;8731;50.364;8.958;2022-11-14T13:22:18;99819.41;;;11.93;74.81
17230;BME280;8731;50.364;8.958;2022-11-14T13:27:26;99823.97;;;11.26;75.84
17230;BME280;8731;50.364;8.958;2022-11-14T13:32:08;99810.88;;;11.21;76.48
17230;BME280;8731;50.364;8.958;2022-11-14T13:36:55;99808.44;;;11.33;76.77
17230;BME280;8731;50.364;8.958;2022-11-14T13:42:06;99795.19;;;11.47;77.00
17230;BME280;8731;50.364;8.958;2022-11-14T13:47:24;99801.81;;;11.25;78.11
17230;BME280;8731;50.364;8.958;2022-11-14T13:52:28;99803.06;;;11.10;77.63
17230;BME280;8731;50.364;8.958;2022-11-14T13:57:20;99790.22;;;11.28;76.94
17230;BME280;8731;50.364;8.958;2022-11-14T14:02:19;99785.25;;;11.20;77.87
17230;BME280;8731;50.364;8.958;2022-11-14T14:07:20;99789.94;;;11.35;76.38
17230;BME280;8731;50.364;8.958;2022-11-14T14:12:24;99780.16;;;11.20;78.63
17230;BME280;8731;50.364;8.958;2022-11-14T14:17:20;99762.81;;;11.26;78.71
17230;BME280;8731;50.364;8.958;2022-11-14T14:22:10;99761.16;;;11.06;79.65
17230;BME280;8731;50.364;8.958;2022-11-14T14:27:03;99758.88;;;11.29;78.51
17230;BME280;8731;50.364;8.958;2022-11-14T14:32:05;99756.09;;;11.16;79.90
17230;BME280;8731;50.364;8.958;2022-11-14T14:36:51;99753.03;;;11.20;80.38
17230;BME280;8731;50.364;8.958;2022-11-14T14:41:33;99754.41;;;11.06;80.61
17230;BME280;8731;50.364;8.958;2022-11-14T14:46:14;99750.97;;;11.06;81.37
17230;BME280;8731;50.364;8.958;2022-11-14T14:51:12;99740.41;;;11.22;81.07
17230;BME280;8731;50.364;8.958;2022-11-14T14:55:55;99736.06;;;11.31;79.65
17230;BME280;8731;50.364;8.958;2022-11-14T15:00:37;99733.13;;;11.26;80.71
17230;BME280;8731;50.364;8.958;2022-11-14T15:05:22;99729.06;;;11.18;81.20
17230;BME280;8731;50.364;8.958;2022-11-14T15:10:19;99729.31;;;11.11;82.24
17230;BME280;8731;50.364;8.958;2022-11-14T15:15:03;99719.53;;;10.95;83.32
17230;BME280;8731;50.364;8.958;2022-11-14T15:19:45;99716.97;;;11.05;81.76
17230;BME280;8731;50.364;8.958;2022-11-14T15:24:29;99703.59;;;10.98;83.55
17230;BME280;8731;50.364;8.958;2022-11-14T15:29:16;99716.97;;;10.95;83.57
17230;BME280;8731;50.364;8.958;2022-11-14T15:34:04;99714.16;;;11.02;82.53
17230;BME280;8731;50.364;8.958;2022-11-14T15:39:02;99710.09;;;11.04;82.93
17230;BME280;8731;50.364;8.958;2022-11-14T15:43:49;99710.34;;;10.97;84.29
17230;BME280;8731;50.364;8.958;2022-11-14T15:48:39;99702.19;;;11.12;82.53
17230;BME280;8731;50.364;8.958;2022-11-14T15:53:21;99700.16;;;11.07;83.58
17230;BME280;8731;50.364;8.958;2022-11-14T15:58:06;99701.94;;;11.19;82.29
17230;BME280;8731;50.364;8.958;2022-11-14T16:02:51;99692.13;;;11.13;82.70
17230;BME280;8731;50.364;8.958;2022-11-14T16:07:35;99708.06;;;11.21;81.72
17230;BME280;8731;50.364;8.958;2022-11-14T16:12:16;99714.28;;;11.24;80.79
17230;BME280;8731;50.364;8.958;2022-11-14T16:16:57;99710.34;;;11.18;83.12
17230;BME280;8731;50.364;8.958;2022-11-14T16:21:38;99707.00;;;11.29;82.04
17230;BME280;8731;50.364;8.958;2022-11-14T16:26:21;99701.78;;;11.27;82.62
17230;BME280;8731;50.364;8.958;2022-11-14T16:31:10;99696.69;;;11.27;83.27
17230;BME280;8731;50.364;8.958;2022-11-14T16:35:51;99709.56;;;11.39;82.63
17230;BME280;8731;50.364;8.958;2022-11-14T16:40:31;99707.78;;;11.38;82.49
17230;BME280;8731;50.364;8.958;2022-11-14T16:45:14;99718.06;;;11.50;81.58
17230;BME280;8731;50.364;8.958;2022-11-14T16:49:55;99710.91;;;11.56;81.18
17230;BME280;8731;50.364;8.958;2022-11-14T16:54:36;99705.69;;;11.54;81.53
17230;BME280;8731;50.364;8.958;2022-11-14T16:59:17;99697.78;;;11.61;81.75
17230;BME280;8731;50.364;8.958;2022-11-14T17:04:00;99699.81;;;11.65;81.81
17230;BME280;8731;50.364;8.958;2022-11-14T17:08:40;99699.53;;;11.73;82.23
17230;BME280;8731;50.364;8.958;2022-11-14T17:13:21;99712.94;;;11.70;81.81
17230;BME280;8731;50.364;8.958;2022-11-14T17:18:04;99704.38;;;11.69;82.35
17230;BME280;8731;50.364;8.958;2022-11-14T17:22:46;99712.03;;;11.80;82.18
17230;BME280;8731;50.364;8.958;2022-11-14T17:27:27;99708.69;;;11.91;81.39
17230;BME280;8731;50.364;8.958;2022-11-14T17:32:08;99712.72;;;11.99;81.42
17230;BME280;8731;50.364;8.958;2022-11-14T17:36:48;99714.25;;;11.97;81.50
17230;BME280;8731;50.364;8.958;2022-11-14T17:41:31;99717.84;;;11.99;81.24
17230;BME280;8731;50.364;8.958;2022-11-14T17:46:12;99715.50;;;12.02;81.82
17230;BME280;8731;50.364;8.958;2022-11-14T17:50:53;99709.41;;;12.00;82.12
17230;BME280;8731;50.364;8.958;2022-11-14T17:55:34;99721.63;;;12.04;81.48
17230;BME280;8731;50.364;8.958;2022-11-14T18:00:18;99724.44;;;12.07;82.43
17230;BME280;8731;50.364;8.958;2022-11-14T18:04:59;99729.28;;;12.04;81.43
17230;BME280;8731;50.364;8.958;2022-11-14T18:09:40;99725.84;;;12.04;81.28
17230;BME280;8731;50.364;8.958;2022-11-14T18:14:20;99731.47;;;12.10;81.46
17230;BME280;8731;50.364;8.958;2022-11-14T18:19:02;99723.41;;;12.05;83.10
17230;BME280;8731;50.364;8.958;2022-11-14T18:23:49;99725.94;;;12.15;82.47
17230;BME280;8731;50.364;8.958;2022-11-14T18:28:30;99724.16;;;12.14;82.35
17230;BME280;8731;50.364;8.958;2022-11-14T18:33:11;99726.94;;;12.17;82.02
17230;BME280;8731;50.364;8.958;2022-11-14T18:37:54;99724.09;;;12.24;82.68
17230;BME280;8731;50.364;8.958;2022-11-14T18:42:36;99725.53;;;12.21;83.05
17230;BME280;8731;50.364;8.958;2022-11-14T18:47:17;99727.84;;;12.18;83.75
17230;BME280;8731;50.364;8.958;2022-11-14T18:51:57;99735.19;;;12.25;83.80
17230;BME280;8731;50.364;8.958;2022-11-14T18:56:40;99734.31;;;12.24;83.51
17230;BME280;8731;50.364;8.958;2022-11-14T19:01:22;99741.06;;;12.24;83.58
17230;BME280;8731;50.364;8.958;2022-11-14T19:06:06;99737.38;;;12.20;83.94
17230;BME280;8731;50.364;8.958;2022-11-14T19:10:48;99739.41;;;12.24;84.56
17230;BME280;8731;50.364;8.958;2022-11-14T19:15:30;99734.06;;;12.21;83.07
17230;BME280;8731;50.364;8.958;2022-11-14T19:20:11;99737.94;;;12.16;84.03
17230;BME280;8731;50.364;8.958;2022-11-14T19:24:53;99749.03;;;12.17;84.00
17230;BME280;8731;50.364;8.958;2022-11-14T19:29:35;99747.66;;;12.10;84.36
17230;BME280;8731;50.364;8.958;2022-11-14T19:34:18;99747.25;;;12.16;83.47
17230;BME280;8731;50.364;8.958;2022-11-14T19:38:59;99742.13;;;12.16;83.96
17230;BME280;8731;50.364;8.958;2022-11-14T19:43:41;99747.41;;;12.07;84.08
17230;BME280;8731;50.364;8.958;2022-11-14T19:48:22;99754.81;;;12.04;83.36
17230;BME280;8731;50.364;8.958;2022-11-14T19:53:05;99755.31;;;12.00;83.75
17230;BME280;8731;50.364;8.958;2022-11-14T19:57:46;99751.16;;;11.90;83.25
17230;BME280;8731;50.364;8.958;2022-11-14T20:02:27;99752.84;;;11.80;83.15
17230;BME280;8731;50.364;8.958;2022-11-14T20:07:08;99763.44;;;11.64;83.68
17230;BME280;8731;50.364;8.958;2022-11-14T20:11:50;99757.69;;;11.56;83.31
17230;BME280;8731;50.364;8.958;2022-11-14T20:16:33;99759.50;;;11.47;83.31
17230;BME280;8731;50.364;8.958;2022-11-14T20:21:16;99761.78;;;11.34;83.05
17230;BME280;8731;50.364;8.958;2022-11-14T20:25:59;99760.03;;;11.23;83.65
17230;BME280;8731;50.364;8.958;2022-11-14T20:30:44;99778.78;;;11.13;83.34
17230;BME280;8731;50.364;8.958;2022-11-14T20:35:25;99777.84;;;11.02;83.84
17230;BME280;8731;50.364;8.958;2022-11-14T20:40:06;99771.47;;;10.97;83.40
17230;BME280;8731;50.364;8.958;2022-11-14T20:44:51;99767.13;;;10.86;83.90
17230;BME280;8731;50.364;8.958;2022-11-14T20:49:33;99770.44;;;10.75;84.42
17230;BME280;8731;50.364;8.958;2022-11-14T20:54:13;99769.38;;;10.63;85.39
17230;BME280;8731;50.364;8.958;2022-11-14T20:58:56;99777.00;;;10.53;85.32
17230;BME280;8731;50.364;8.958;2022-11-14T21:03:38;99775.19;;;10.41;85.52
17230;BME280;8731;50.364;8.958;2022-11-14T21:08:20;99764.84;;;10.40;85.82
17230;BME280;8731;50.364;8.958;2022-11-14T21:13:06;99762.53;;;10.33;85.56
17230;BME280;8731;50.364;8.958;2022-11-14T21:18:05;99770.16;;;10.33;85.36
17230;BME280;8731;50.364;8.958;2022-11-14T21:22:46;99769.13;;;10.21;85.48
17230;BME280;8731;50.364;8.958;2022-11-14T21:27:28;99771.06;;;10.14;85.94
17230;BME280;8731;50.364;8.958;2022-11-14T21:32:10;99772.97;;;10.07;86.23
17230;BME280;8731;50.364;8.958;2022-11-14T21:36:51;99777.91;;;10.05;86.03
17230;BME280;8731;50.364;8.958;2022-11-14T21:41:32;99774.84;;;9.99;86.25
17230;BME280;8731;50.364;8.958;2022-11-14T21:46:14;99787.28;;;9.96;86.19
17230;BME280;8731;50.364;8.958;2022-11-14T21:51:01;99776.25;;;9.77;87.44
17230;BME280;8731;50.364;8.958;2022-11-14T21:55:43;99778.06;;;9.69;87.37
17230;BME280;8731;50.364;8.958;2022-11-14T22:00:25;99775.41;;;9.68;87.26
17230;BME280;8731;50.364;8.958;2022-11-14T22:05:07;99774.50;;;9.67;87.50
17230;BME280;8731;50.364;8.958;2022-11-14T22:09:48;99784.13;;;9.61;87.59
17230;BME280;8731;50.364;8.958;2022-11-14T22:14:29;99788.31;;;9.61;87.35
17230;BME280;8731;50.364;8.958;2022-11-14T22:19:09;99790.72;;;9.59;87.72
17230;BME280;8731;50.364;8.958;2022-11-14T22:23:52;99803.03;;;9.54;88.10
17230;BME280;8731;50.364;8.958;2022-11-14T22:28:33;99802.78;;;9.43;88.65
17230;BME280;8731;50.364;8.958;2022-11-14T22:33:14;99801.72;;;9.49;88.68
17230;BME280;8731;50.364;8.958;2022-11-14T22:37:55;99813.53;;;9.49;89.77
17230;BME280;8731;50.364;8.958;2022-11-14T22:42:37;99805.59;;;9.46;89.47
17230;BME280;8731;50.364;8.958;2022-11-14T22:47:18;99810.28;;;9.41;89.64
17230;BME280;8731;50.364;8.958;2022-11-14T22:51:58;99805.06;;;9.40;89.56
17230;BME280;8731;50.364;8.958;2022-11-14T22:56:39;99807.75;;;9.41;89.54
17230;BME280;8731;50.364;8.958;2022-11-14T23:01:23;99814.00;;;9.26;90.32
17230;BME280;8731;50.364;8.958;2022-11-14T23:06:07;99795.75;;;9.21;90.27
17230;BME280;8731;50.364;8.958;2022-11-14T23:10:48;99792.16;;;9.28;90.21
17230;BME280;8731;50.364;8.958;2022-11-14T23:15:29;99780.44;;;9.11;91.51
17230;BME280;8731;50.364;8.958;2022-11-14T23:20:11;99778.16;;;9.23;90.51
17230;BME280;8731;50.364;8.958;2022-11-14T23:24:53;99793.38;;;9.23;90.56
17230;BME280;8731;50.364;8.958;2022-11-14T23:29:33;99793.38;;;9.23;90.42
17230;BME280;8731;50.364;8.958;2022-11-14T23:34:14;99798.47;;;9.23;90.24
17230;BME280;8731;50.364;8.958;2022-11-14T23:38:56;99798.91;;;9.19;91.43
17230;BME280;8731;50.364;8.958;2022-11-14T23:43:37;99796.38;;;9.19;92.03
17230;BME280;8731;50.364;8.958;2022-11-14T23:48:19;99793.38;;;9.23;92.37
17230;BME280;8731;50.364;8.958;2022-11-14T23:53:00;99785.28;;;9.27;92.09
17230;BME280;8731;50.364;8.958;2022-11-14T23:57:42;99790.38;;;9.27;92.37
